Time;durP1;ratioP1;P1;durP2;ratioP2;P2;SDS_P1;SDS_P2;PMS_P1;PMS_P2;Temp;Humidity;BMP_temperature;BMP_pressure;BME280_temperature;BME280_humidity;BME280_pressure;Samples;Min_cycle;Max_cycle;Signal;HPM_P1;HPM_P2
2021/07/04 00:00:15;;;;;;;5.80;5.50;;;;;;;18.19;84.84;100808.12;4338798;32;20604;-73
2021/07/04 00:02:51;;;;;;;5.40;5.10;;;;;;;17.98;85.45;100763.78;4346725;32;20070;-73
2021/07/04 00:05:17;;;;;;;5.43;5.12;;;;;;;17.66;85.19;100721.22;4335878;32;20201;-71
2021/07/04 00:07:43;;;;;;;5.82;5.53;;;;;;;18.22;85.01;100800.75;4351096;32;20163;-74
2021/07/04 00:10:10;;;;;;;5.50;5.20;;;;;;;18.20;85.29;100796.50;4350846;32;20078;-72
2021/07/04 00:12:35;;;;;;;5.20;5.00;;;;;;;18.04;85.29;100775.69;4348808;32;20204;-72
2021/07/04 00:15:01;;;;;;;5.15;4.95;;;;;;;18.09;86.37;100787.62;4338114;32;20817;-72
2021/07/04 00:17:26;;;;;;;6.20;5.90;;;;;;;17.73;85.24;100733.03;4349308;32;20071;-71
2021/07/04 00:19:52;;;;;;;5.50;5.20;;;;;;;18.06;85.56;100779.06;4349975;32;20172;-73
2021/07/04 00:22:17;;;;;;;5.68;5.28;;;;;;;18.00;86.07;100783.09;4347295;32;20363;-72
2021/07/04 00:24:42;;;;;;;6.20;5.82;;;;;;;17.91;85.68;100770.56;4347236;32;20098;-73
2021/07/04 00:27:08;;;;;;;6.07;5.62;;;;;;;17.94;86.62;100770.28;4343124;32;20077;-73
2021/07/04 00:29:33;;;;;;;5.50;5.20;;;;;;;17.49;85.81;100712.00;4332532;32;20549;-73
2021/07/04 00:31:58;;;;;;;6.10;5.80;;;;;;;17.89;86.16;100767.19;4338872;32;20082;-73
2021/07/04 00:34:24;;;;;;;5.30;5.00;;;;;;;17.92;86.97;100770.44;4349987;32;20668;-74
2021/07/04 00:36:49;;;;;;;5.15;4.90;;;;;;;17.89;86.10;100770.66;4341542;32;20516;-74
2021/07/04 00:39:14;;;;;;;6.07;5.70;;;;;;;17.88;86.27;100768.13;4343317;32;20354;-73
2021/07/04 00:41:40;;;;;;;5.60;5.20;;;;;;;17.77;86.00;100750.41;4340274;32;20561;-73
2021/07/04 00:44:05;;;;;;;5.00;4.80;;;;;;;17.82;86.26;100763.28;4350138;32;20082;-74
2021/07/04 00:46:31;;;;;;;5.22;5.03;;;;;;;17.81;86.80;100757.16;4351684;32;20173;-72
2021/07/04 00:48:58;;;;;;;5.57;5.28;;;;;;;17.79;86.82;100764.41;4351014;32;20122;-74
2021/07/04 00:51:23;;;;;;;5.00;4.80;;;;;;;17.75;86.85;100763.81;4343322;32;20078;-73
2021/07/04 00:53:48;;;;;;;5.35;5.12;;;;;;;17.74;86.23;100762.13;4347441;32;20130;-74
2021/07/04 00:56:14;;;;;;;5.20;4.90;;;;;;;17.72;86.46;100760.53;4338922;32;20082;-73
2021/07/04 00:58:39;;;;;;;5.75;5.30;;;;;;;17.69;86.72;100753.69;4323695;32;20619;-74
2021/07/04 01:01:05;;;;;;;5.65;5.35;;;;;;;17.72;87.08;100765.84;4326641;32;20365;-74
2021/07/04 01:03:30;;;;;;;5.10;4.90;;;;;;;17.72;86.96;100763.19;4337550;32;20077;-73
2021/07/04 01:05:55;;;;;;;5.70;5.50;;;;;;;17.50;86.29;100719.84;4337777;32;20104;-73
2021/07/04 01:08:21;;;;;;;5.55;5.25;;;;;;;17.71;87.39;100742.94;4329617;32;20569;-73
2021/07/04 01:10:46;;;;;;;5.40;5.12;;;;;;;17.69;86.86;100740.41;4339117;32;20323;-73
2021/07/04 01:13:12;;;;;;;6.28;5.87;;;;;;;17.44;86.09;100706.22;4335026;32;20079;-71
2021/07/04 01:15:38;;;;;;;5.80;5.50;;;;;;;17.60;86.67;100727.03;4334826;32;20455;-73
2021/07/04 01:18:05;;;;;;;5.22;4.95;;;;;;;17.47;86.47;100708.63;4336277;32;20341;-73
2021/07/04 01:20:30;;;;;;;5.28;5.05;;;;;;;17.70;86.99;100738.59;4333896;32;20143;-72
2021/07/04 01:23:03;;;;;;;5.22;4.93;;;;;;;17.68;86.41;100735.22;4323200;32;20593;-72
2021/07/04 01:25:30;;;;;;;5.80;5.50;;;;;;;17.62;86.72;100727.75;4337808;32;20202;-73
2021/07/04 01:27:56;;;;;;;5.53;5.30;;;;;;;17.52;86.06;100727.69;4337076;32;20606;-73
2021/07/04 01:30:22;;;;;;;5.37;5.07;;;;;;;17.47;86.38;100724.56;4339585;32;20150;-73
2021/07/04 01:32:47;;;;;;;5.28;5.07;;;;;;;17.35;86.85;100718.44;4355776;32;20086;-73
2021/07/04 01:35:13;;;;;;;5.65;5.30;;;;;;;17.43;87.27;100729.25;4372422;32;20070;-72
2021/07/04 01:37:38;;;;;;;5.35;5.10;;;;;;;17.43;86.59;100725.78;4356120;32;20090;-72
2021/07/04 01:40:04;;;;;;;5.72;5.43;;;;;;;17.43;87.58;100723.12;4351982;32;20085;-73
2021/07/04 01:42:30;;;;;;;4.93;4.72;;;;;;;17.45;86.79;100729.97;4352346;32;20776;-73
2021/07/04 01:44:55;;;;;;;6.45;6.05;;;;;;;17.48;86.82;100732.41;4338993;32;20141;-73
2021/07/04 01:47:20;;;;;;;5.90;5.25;;;;;;;17.44;87.20;100717.69;4347357;32;20069;-72
2021/07/04 01:49:46;;;;;;;6.05;5.70;;;;;;;17.58;86.97;100731.63;4360655;32;20082;-73
2021/07/04 01:52:11;;;;;;;5.55;5.25;;;;;;;17.57;86.69;100740.56;4339832;32;20072;-73
2021/07/04 01:54:37;;;;;;;5.85;5.45;;;;;;;17.30;86.51;100684.31;4336097;32;20071;-73
2021/07/04 01:57:11;;;;;;;5.70;5.35;;;;;;;17.60;86.39;100727.03;4342904;32;20493;-73
2021/07/04 01:59:39;;;;;;;5.37;5.07;;;;;;;17.57;86.77;100732.63;4351413;32;20611;-73
2021/07/04 02:02:05;;;;;;;5.75;5.45;;;;;;;17.52;87.59;100741.78;4360359;32;20105;-73
2021/07/04 02:04:30;;;;;;;5.18;4.97;;;;;;;17.49;87.25;100723.47;4339607;32;20521;-73
2021/07/04 02:06:56;;;;;;;5.00;4.80;;;;;;;17.59;86.85;100736.00;4351407;32;20071;-73
2021/07/04 02:09:21;;;;;;;5.78;5.47;;;;;;;17.61;86.47;100736.72;4351564;32;20069;-73
2021/07/04 02:11:46;;;;;;;5.87;5.50;;;;;;;17.60;87.15;100730.56;4339184;32;20399;-73
2021/07/04 02:14:12;;;;;;;5.60;5.25;;;;;;;17.57;87.47;100733.44;4352328;32;20070;-72
2021/07/04 02:16:37;;;;;;;5.72;5.43;;;;;;;17.53;86.40;100726.72;4337014;32;20588;-73
2021/07/04 02:19:02;;;;;;;5.53;5.22;;;;;;;17.52;86.40;100731.19;4349032;32;20136;-73
2021/07/04 02:21:28;;;;;;;5.70;5.40;;;;;;;17.17;86.55;100677.47;4336634;32;20097;-73
2021/07/04 02:23:53;;;;;;;5.00;4.80;;;;;;;16.40;86.66;100551.00;4354557;32;20521;-73
2021/07/04 02:26:18;;;;;;;5.90;5.60;;;;;;;17.38;88.19;100718.19;4339700;32;20144;-73
2021/07/04 02:28:44;;;;;;;5.22;4.93;;;;;;;17.46;87.95;100731.69;4350908;32;20070;-72
2021/07/04 02:31:09;;;;;;;5.40;5.12;;;;;;;17.45;87.86;100724.66;4351449;32;20540;-74
2021/07/04 02:33:34;;;;;;;5.45;5.25;;;;;;;17.31;88.13;100706.38;4350835;32;20094;-73
2021/07/04 02:36:00;;;;;;;5.37;5.10;;;;;;;17.46;87.29;100729.03;4338524;32;20133;-74
2021/07/04 02:38:25;;;;;;;5.75;5.45;;;;;;;17.44;87.50;100722.13;4352024;32;20670;-74
2021/07/04 02:40:51;;;;;;;4.90;4.70;;;;;;;17.46;87.19;100725.50;4353491;32;20089;-73
2021/07/04 02:43:18;;;;;;;5.40;5.00;;;;;;;17.42;86.90;100730.25;4350591;32;20084;-72
2021/07/04 02:45:43;;;;;;;5.65;5.35;;;;;;;17.30;88.40;100725.94;4340471;32;20085;-73
2021/07/04 02:48:09;;;;;;;5.47;5.18;;;;;;;17.23;88.42;100714.09;4336915;32;20078;-73
2021/07/04 02:50:34;;;;;;;5.60;5.30;;;;;;;17.25;88.37;100720.12;4339675;32;20074;-73
2021/07/04 02:53:00;;;;;;;5.00;4.80;;;;;;;16.94;88.52;100677.50;4351908;32;20339;-73
2021/07/04 02:55:25;;;;;;;5.37;5.07;;;;;;;17.20;88.52;100715.19;4352706;32;20241;-73
2021/07/04 02:57:51;;;;;;;5.30;5.00;;;;;;;17.20;87.93;100724.94;4343718;32;20794;-73
2021/07/04 03:00:21;;;;;;;5.72;5.43;;;;;;;17.18;87.98;100714.47;4342231;32;20660;-73
2021/07/04 03:02:46;;;;;;;5.80;5.20;;;;;;;17.17;88.33;100719.91;4357759;32;20094;-73
2021/07/04 03:05:12;;;;;;;4.95;4.75;;;;;;;17.15;87.91;100718.19;4348419;32;20065;-73
2021/07/04 03:07:37;;;;;;;6.35;6.05;;;;;;;17.15;88.01;100725.31;4348648;32;20274;-73
2021/07/04 03:10:04;;;;;;;5.32;5.03;;;;;;;17.13;87.60;100729.91;4350322;32;20089;-73
2021/07/04 03:12:29;;;;;;;5.62;5.32;;;;;;;17.17;88.27;100722.56;4339833;32;20121;-73
2021/07/04 03:14:55;;;;;;;5.15;4.95;;;;;;;17.17;88.40;100730.50;4337702;32;20074;-73
2021/07/04 03:17:20;;;;;;;5.18;4.97;;;;;;;16.23;87.39;100574.38;4347978;32;20082;-73
2021/07/04 03:19:45;;;;;;;5.43;5.20;;;;;;;17.19;88.03;100724.13;4323895;32;20084;-73
2021/07/04 03:22:11;;;;;;;5.35;5.05;;;;;;;17.09;88.18;100709.91;4324031;32;20081;-73
2021/07/04 03:24:39;;;;;;;4.80;4.60;;;;;;;17.23;87.74;100714.94;4332937;32;20066;-73
2021/07/04 03:27:05;;;;;;;5.20;5.00;;;;;;;17.29;87.46;100711.78;4321737;32;20579;-74
2021/07/04 03:29:30;;;;;;;5.10;4.90;;;;;;;17.24;87.18;100714.00;4333566;32;20211;-73
2021/07/04 03:31:55;;;;;;;4.90;4.70;;;;;;;17.25;87.11;100718.31;4334582;32;20070;-73
2021/07/04 03:34:21;;;;;;;5.68;5.37;;;;;;;17.18;87.93;100710.97;4333384;32;20596;-74
2021/07/04 03:36:46;;;;;;;5.62;5.22;;;;;;;17.30;87.87;100713.50;4329909;32;20138;-73
2021/07/04 03:39:11;;;;;;;5.37;5.07;;;;;;;17.33;87.14;100713.22;4335539;32;20642;-74
2021/07/04 03:41:37;;;;;;;5.90;5.60;;;;;;;17.35;87.16;100713.94;4340890;32;20063;-72
2021/07/04 03:44:02;;;;;;;6.05;5.65;;;;;;;17.36;87.74;100714.81;4350633;32;20098;-72
2021/07/04 03:46:28;;;;;;;5.45;5.15;;;;;;;17.16;86.78;100679.28;4352671;32;20579;-72
2021/07/04 03:48:53;;;;;;;5.05;4.85;;;;;;;17.27;87.62;100696.97;4360488;32;20074;-75
2021/07/04 03:51:19;;;;;;;5.00;4.80;;;;;;;17.38;86.78;100714.66;4350786;32;20070;-73
2021/07/04 03:53:50;;;;;;;4.90;4.70;;;;;;;17.40;87.55;100718.91;4351733;32;20086;-73
2021/07/04 03:56:16;;;;;;;5.40;5.12;;;;;;;17.40;86.74;100715.37;4348173;32;20188;-71
2021/07/04 03:58:41;;;;;;;6.03;5.72;;;;;;;17.39;87.65;100725.16;4339493;32;20073;-73
2021/07/04 04:01:09;;;;;;;5.10;4.90;;;;;;;17.30;86.83;100702.06;4334953;32;20078;-73
2021/07/04 04:03:34;;;;;;;5.50;5.10;;;;;;;17.40;86.94;100724.22;4348892;32;20289;-73
2021/07/04 04:05:59;;;;;;;4.90;4.70;;;;;;;17.41;86.91;100719.75;4348226;32;20161;-73
2021/07/04 04:08:25;;;;;;;6.47;5.30;;;;;;;17.10;86.88;100669.19;4336642;32;20529;-73
2021/07/04 04:10:50;;;;;;;5.90;5.47;;;;;;;17.41;87.80;100731.19;4335035;32;20085;-73
2021/07/04 04:13:16;;;;;;;5.55;5.25;;;;;;;17.31;87.92;100707.22;4336531;32;20146;-72
2021/07/04 04:15:41;;;;;;;5.30;5.00;;;;;;;17.44;87.62;100720.34;4320148;32;20136;-74
2021/07/04 04:18:07;;;;;;;5.65;5.35;;;;;;;17.31;87.24;100701.06;4324585;32;20079;-74
2021/07/04 04:20:32;;;;;;;5.62;5.32;;;;;;;17.44;86.85;100711.53;4342512;32;20098;-74
2021/07/04 04:22:58;;;;;;;5.50;5.20;;;;;;;17.58;87.59;100729.84;4327180;32;20081;-74
2021/07/04 04:25:23;;;;;;;5.70;5.40;;;;;;;17.59;87.40;100731.50;4350855;32;20097;-73
2021/07/04 04:27:48;;;;;;;5.85;5.55;;;;;;;17.62;86.60;100730.41;4341026;32;20079;-73
2021/07/04 04:30:14;;;;;;;6.18;5.25;;;;;;;17.67;87.43;100731.72;4353656;32;20325;-73
2021/07/04 04:32:39;;;;;;;5.68;5.37;;;;;;;17.73;86.42;100733.03;4339481;32;20218;-73
2021/07/04 04:35:06;;;;;;;5.40;5.15;;;;;;;17.64;86.21;100708.13;4345632;32;20079;-73
2021/07/04 04:37:32;;;;;;;5.43;5.20;;;;;;;17.88;87.10;100737.12;4339213;32;20073;-74
2021/07/04 04:39:57;;;;;;;5.70;5.40;;;;;;;17.86;86.67;100711.66;4354253;32;20671;-72
2021/07/04 04:42:23;;;;;;;5.55;5.25;;;;;;;17.82;85.82;100692.47;4328238;32;20096;-74
2021/07/04 04:44:48;;;;;;;5.45;5.05;;;;;;;18.13;85.35;100732.44;4326936;32;20173;-74
2021/07/04 04:47:13;;;;;;;5.62;5.37;;;;;;;18.14;85.18;100728.78;4327801;32;20454;-74
2021/07/04 04:49:39;;;;;;;6.20;5.80;;;;;;;18.09;85.59;100718.56;4343291;32;20063;-74
2021/07/04 04:52:05;;;;;;;5.68;5.30;;;;;;;17.97;85.81;100706.31;4339773;32;20320;-73
2021/07/04 04:54:30;;;;;;;5.55;5.25;;;;;;;17.07;85.54;100574.78;4356565;32;20066;-73
2021/07/04 04:56:55;;;;;;;6.28;5.82;;;;;;;18.03;85.68;100728.87;4347361;32;20071;-74
2021/07/04 04:59:24;;;;;;;5.65;5.30;;;;;;;17.97;85.21;100726.72;4348490;32;20074;-74
2021/07/04 05:01:49;;;;;;;5.10;4.90;;;;;;;17.84;86.04;100738.37;4336155;32;20182;-73
2021/07/04 05:04:14;;;;;;;5.32;5.03;;;;;;;17.75;86.39;100737.25;4344659;32;20324;-73
2021/07/04 05:06:41;;;;;;;5.15;4.95;;;;;;;17.70;86.14;100733.28;4339020;32;20580;-73
2021/07/04 05:09:07;;;;;;;5.20;4.93;;;;;;;17.58;86.98;100721.87;4340199;32;20094;-74
2021/07/04 05:11:32;;;;;;;4.82;4.62;;;;;;;17.61;87.22;100734.06;4356521;32;20063;-73
2021/07/04 05:13:58;;;;;;;5.50;5.20;;;;;;;17.60;87.03;100729.69;4353372;32;20085;-74
2021/07/04 05:16:23;;;;;;;5.10;4.90;;;;;;;17.06;87.33;100650.00;4332320;32;20639;-73
2021/07/04 05:18:48;;;;;;;5.50;5.20;;;;;;;17.62;87.04;100718.00;4326469;32;20090;-73
2021/07/04 05:21:14;;;;;;;5.93;5.32;;;;;;;17.75;87.46;100720.50;4343176;32;20063;-73
2021/07/04 05:23:39;;;;;;;5.87;5.57;;;;;;;17.96;86.32;100714.41;4354319;32;20081;-73
2021/07/04 05:26:05;;;;;;;5.80;5.43;;;;;;;18.10;86.10;100661.84;4355677;32;20583;-74
2021/07/04 05:28:30;;;;;;;5.30;4.90;;;;;;;19.10;85.32;100706.44;4347553;32;20069;-72
2021/07/04 05:30:55;;;;;;;5.00;4.80;;;;;;;20.21;81.93;100684.97;4351012;32;20080;-75
2021/07/04 05:33:22;;;;;;;5.57;5.28;;;;;;;21.22;76.03;100687.81;4353047;32;20184;-73
2021/07/04 05:35:47;;;;;;;5.35;5.05;;;;;;;22.09;72.35;100697.87;4362456;32;20144;-72
2021/07/04 05:38:20;;;;;;;6.00;5.68;;;;;;;22.85;70.13;100693.69;4355377;32;20407;-73
2021/07/04 05:40:49;;;;;;;5.95;5.65;;;;;;;23.02;66.98;100691.13;4351234;32;20074;-73
2021/07/04 05:43:14;;;;;;;5.85;5.55;;;;;;;23.39;66.97;100687.19;4361628;32;20081;-73
2021/07/04 05:45:39;;;;;;;5.90;5.60;;;;;;;23.02;66.02;100675.88;4351368;32;20065;-73
2021/07/04 05:48:05;;;;;;;5.93;5.62;;;;;;;22.11;66.87;100701.25;4350184;32;20617;-73
2021/07/04 05:50:31;;;;;;;5.32;5.12;;;;;;;22.18;68.10;100696.09;4339460;32;20090;-73
2021/07/04 05:52:56;;;;;;;6.15;5.65;;;;;;;22.52;68.33;100690.00;4353041;32;20088;-74
2021/07/04 05:55:22;;;;;;;6.05;5.65;;;;;;;22.68;66.57;100604.47;4350593;32;20082;-74
2021/07/04 05:57:48;;;;;;;6.60;6.15;;;;;;;23.53;65.52;100688.41;4352746;32;20108;-74
2021/07/04 06:00:13;;;;;;;5.95;5.65;;;;;;;22.97;62.31;100680.84;4339329;32;20581;-74
2021/07/04 06:02:39;;;;;;;6.80;6.20;;;;;;;22.54;65.62;100681.84;4349731;32;20741;-74
2021/07/04 06:05:05;;;;;;;6.10;5.70;;;;;;;22.72;65.01;100681.75;4362748;32;20626;-73
2021/07/04 06:07:30;;;;;;;6.12;5.80;;;;;;;22.82;65.74;100658.41;4346741;32;20082;-73
2021/07/04 06:09:55;;;;;;;6.37;5.97;;;;;;;23.30;65.17;100681.00;4336929;32;20698;-73
2021/07/04 06:12:21;;;;;;;5.85;5.55;;;;;;;23.30;64.47;100664.94;4349143;32;20077;-74
2021/07/04 06:14:46;;;;;;;6.25;5.85;;;;;;;23.30;64.30;100676.47;4351401;32;20631;-73
2021/07/04 06:17:12;;;;;;;6.32;5.93;;;;;;;22.66;63.81;100657.31;4360524;32;20105;-73
2021/07/04 06:19:37;;;;;;;6.35;6.00;;;;;;;22.50;65.15;100646.53;4341372;32;20165;-74
2021/07/04 06:22:03;;;;;;;6.70;6.10;;;;;;;22.61;65.15;100630.22;4349859;32;20443;-73
2021/07/04 06:24:29;;;;;;;6.43;6.03;;;;;;;23.29;64.07;100660.56;4339833;32;20058;-73
2021/07/04 06:26:54;;;;;;;6.00;5.70;;;;;;;23.25;62.89;100619.06;4337519;32;20334;-74
2021/07/04 06:29:19;;;;;;;7.20;6.80;;;;;;;23.35;62.50;100667.94;4350963;32;20067;-73
2021/07/04 06:31:45;;;;;;;6.00;5.70;;;;;;;23.29;61.87;100609.69;4348248;32;20089;-73
2021/07/04 06:34:10;;;;;;;6.45;6.05;;;;;;;23.82;61.61;100653.97;4350705;32;20093;-73
2021/07/04 06:36:35;;;;;;;6.60;6.12;;;;;;;23.79;60.28;100627.50;4349770;32;20089;-73
2021/07/04 06:39:01;;;;;;;6.43;6.03;;;;;;;23.67;59.18;100628.81;4351198;32;20074;-73
2021/07/04 06:41:26;;;;;;;6.43;6.03;;;;;;;24.26;58.65;100642.84;4360647;32;20363;-72
2021/07/04 06:43:52;;;;;;;6.05;5.75;;;;;;;24.37;59.71;100619.38;4338442;32;20596;-74
2021/07/04 06:46:17;;;;;;;6.37;5.97;;;;;;;25.06;58.09;100658.03;4364934;32;20501;-74
2021/07/04 06:48:42;;;;;;;6.30;5.90;;;;;;;25.26;56.90;100663.00;4341916;32;20074;-74
2021/07/04 06:51:08;;;;;;;6.85;6.32;;;;;;;24.83;56.74;100660.66;4351835;32;20074;-73
2021/07/04 06:53:34;;;;;;;6.72;6.20;;;;;;;23.79;59.89;100664.19;4357999;32;20084;-75
2021/07/04 06:55:59;;;;;;;6.35;5.95;;;;;;;23.19;63.66;100663.38;4380761;32;20096;-74
2021/07/04 06:58:25;;;;;;;7.10;6.60;;;;;;;22.39;64.00;100580.81;4350440;32;20085;-73
2021/07/04 07:00:50;;;;;;;6.03;5.72;;;;;;;23.04;63.70;100649.81;4363257;32;20401;-74
2021/07/04 07:03:16;;;;;;;6.50;6.10;;;;;;;22.62;64.78;100658.63;4321677;32;20474;-74
2021/07/04 07:05:41;;;;;;;5.95;5.65;;;;;;;22.93;64.02;100657.25;4336411;32;20435;-73
2021/07/04 07:08:06;;;;;;;6.05;5.72;;;;;;;23.26;63.85;100659.06;4334238;32;20081;-73
2021/07/04 07:10:32;;;;;;;6.50;6.10;;;;;;;23.51;62.62;100667.13;4335692;32;20608;-73
2021/07/04 07:13:00;;;;;;;6.12;5.62;;;;;;;23.70;61.86;100652.59;4345305;32;20086;-72
2021/07/04 07:15:26;;;;;;;5.57;5.28;;;;;;;23.61;61.45;100640.19;4337216;32;20062;-74
2021/07/04 07:17:51;;;;;;;5.90;5.60;;;;;;;23.70;61.87;100655.28;4324687;32;20371;-74
2021/07/04 07:20:17;;;;;;;6.37;5.87;;;;;;;23.65;61.73;100654.94;4347677;32;20133;-74
2021/07/04 07:22:42;;;;;;;6.07;5.75;;;;;;;23.14;61.94;100604.16;4337399;32;20073;-73
2021/07/04 07:25:08;;;;;;;6.00;5.70;;;;;;;23.23;63.30;100639.81;4335511;32;20542;-74
2021/07/04 07:27:33;;;;;;;6.57;5.97;;;;;;;23.15;61.94;100629.06;4327070;32;20110;-73
2021/07/04 07:29:59;;;;;;;6.12;5.82;;;;;;;22.90;63.48;100640.53;4357864;32;20577;-74
2021/07/04 07:32:26;;;;;;;6.00;5.70;;;;;;;23.30;63.76;100630.94;4329565;32;20136;-74
2021/07/04 07:34:52;;;;;;;6.40;6.07;;;;;;;23.31;63.21;100642.50;4320161;32;20925;-74
2021/07/04 07:37:18;;;;;;;6.00;5.70;;;;;;;23.78;61.73;100633.03;4342200;32;20090;-73
2021/07/04 07:39:43;;;;;;;6.25;5.85;;;;;;;23.62;61.54;100623.13;4349964;32;20112;-73
2021/07/04 07:42:09;;;;;;;6.07;5.78;;;;;;;23.60;61.97;100638.53;4348230;32;20086;-73
2021/07/04 07:44:34;;;;;;;6.62;6.22;;;;;;;23.65;61.45;100630.81;4355251;32;20078;-73
2021/07/04 07:47:00;;;;;;;6.32;5.93;;;;;;;23.25;62.96;100635.97;4328566;32;20079;-72
2021/07/04 07:49:25;;;;;;;6.75;6.25;;;;;;;23.30;62.42;100632.81;4323830;32;20071;-73
2021/07/04 07:51:50;;;;;;;6.20;5.90;;;;;;;23.56;62.36;100626.47;4335260;32;20074;-72
2021/07/04 07:54:17;;;;;;;6.78;6.28;;;;;;;23.81;62.05;100612.09;4352062;32;20077;-73
2021/07/04 07:56:42;;;;;;;6.40;6.10;;;;;;;23.83;60.95;100619.97;4342841;32;20088;-73
2021/07/04 07:59:08;;;;;;;6.37;6.07;;;;;;;24.17;60.45;100617.06;4358853;32;20874;-73
2021/07/04 08:01:33;;;;;;;5.75;5.45;;;;;;;24.43;59.37;100608.78;4336864;32;20077;-73
2021/07/04 08:03:58;;;;;;;6.00;5.70;;;;;;;24.83;58.72;100624.91;4340223;32;20098;-73
2021/07/04 08:06:24;;;;;;;6.07;5.70;;;;;;;25.04;57.57;100600.97;4336055;32;20094;-73
2021/07/04 08:08:49;;;;;;;6.18;5.87;;;;;;;25.27;56.72;100622.50;4360423;32;20593;-73
2021/07/04 08:11:14;;;;;;;5.82;5.53;;;;;;;25.57;55.13;100616.44;4323057;32;20070;-72
2021/07/04 08:13:40;;;;;;;6.00;5.60;;;;;;;25.02;55.27;100612.94;4342059;32;20588;-72
2021/07/04 08:16:05;;;;;;;5.97;5.68;;;;;;;24.91;55.69;100616.00;4324749;32;20097;-73
2021/07/04 08:18:30;;;;;;;6.30;5.93;;;;;;;24.67;56.70;100617.78;4337440;32;20485;-73
2021/07/04 08:20:56;;;;;;;6.00;5.70;;;;;;;24.54;56.38;100610.28;4344566;32;20095;-72
2021/07/04 08:23:21;;;;;;;6.60;6.20;;;;;;;24.82;55.33;100607.16;4333420;32;20066;-73
2021/07/04 08:25:47;;;;;;;5.80;5.50;;;;;;;24.58;56.43;100605.44;4330277;32;20089;-72
2021/07/04 08:28:12;;;;;;;6.18;5.78;;;;;;;25.07;55.26;100571.06;4358733;32;20077;-72
2021/07/04 08:30:38;;;;;;;6.10;5.80;;;;;;;25.96;54.34;100596.63;4352499;32;20073;-72
2021/07/04 08:33:03;;;;;;;5.87;5.57;;;;;;;25.76;52.95;100585.50;4358864;32;20092;-73
2021/07/04 08:35:29;;;;;;;5.87;5.57;;;;;;;26.05;51.83;100580.22;4352813;32;20106;-72
2021/07/04 08:37:54;;;;;;;5.72;5.43;;;;;;;26.12;52.05;100537.28;4348031;32;20601;-72
2021/07/04 08:40:19;;;;;;;6.00;5.68;;;;;;;25.24;52.54;100579.06;4351294;32;20143;-72
2021/07/04 08:42:45;;;;;;;5.70;5.40;;;;;;;25.05;53.24;100580.34;4349538;32;20074;-72
2021/07/04 08:45:11;;;;;;;5.75;5.45;;;;;;;24.32;54.71;100546.66;4346975;32;20488;-72
2021/07/04 08:47:36;;;;;;;5.97;5.68;;;;;;;24.24;56.26;100577.00;4348064;32;20093;-72
2021/07/04 08:50:02;;;;;;;5.93;5.62;;;;;;;24.24;57.81;100540.28;4359127;32;20077;-74
2021/07/04 08:52:28;;;;;;;6.53;6.10;;;;;;;24.76;57.76;100579.16;4349154;32;20070;-73
2021/07/04 08:54:53;;;;;;;6.40;6.00;;;;;;;24.72;56.08;100453.53;4338204;32;20141;-73
2021/07/04 08:57:18;;;;;;;5.65;5.35;;;;;;;26.01;53.33;100578.09;4341846;32;20696;-73
2021/07/04 08:59:46;;;;;;;6.28;5.90;;;;;;;24.76;55.33;100516.59;4348473;32;20092;-72
2021/07/04 09:02:13;;;;;;;6.07;5.72;;;;;;;25.23;54.78;100572.03;4358366;32;20088;-72
2021/07/04 09:04:38;;;;;;;5.87;5.57;;;;;;;25.68;54.21;100575.69;4338179;32;20140;-73
2021/07/04 09:07:04;;;;;;;5.95;5.65;;;;;;;25.79;53.11;100561.78;4360664;32;20204;-73
2021/07/04 09:09:33;;;;;;;6.03;5.50;;;;;;;26.42;52.34;100556.94;4363142;32;20151;-73
2021/07/04 09:12:02;;;;;;;5.50;5.30;;;;;;;26.10;52.26;100552.78;4362670;32;20504;-73
2021/07/04 09:14:35;;;;;;;6.40;6.00;;;;;;;25.25;53.05;100495.59;4373288;32;20507;-73
2021/07/04 09:17:01;;;;;;;5.90;5.60;;;;;;;25.91;53.43;100527.25;4332380;32;20071;-72
2021/07/04 09:19:27;;;;;;;5.70;5.40;;;;;;;26.74;50.71;100543.25;4337312;32;20477;-73
2021/07/04 09:22:00;;;;;;;6.45;6.05;;;;;;;26.04;52.25;100542.75;4322675;32;20078;-72
2021/07/04 09:24:29;;;;;;;6.45;6.03;;;;;;;26.05;50.61;100547.12;4340074;32;20630;-73
2021/07/04 09:26:55;;;;;;;6.20;5.90;;;;;;;26.11;50.58;100538.31;4334928;32;20081;-72
2021/07/04 09:29:41;;;;;;;6.60;6.20;;;;;;;26.50;50.62;100530.94;4359414;32;20132;-73
2021/07/04 09:32:13;;;;;;;6.25;5.95;;;;;;;26.12;50.21;100523.84;4362827;32;20092;-73
2021/07/04 09:34:39;;;;;;;6.50;6.10;;;;;;;25.96;52.58;100519.50;4363038;32;20062;-73
2021/07/04 09:37:04;;;;;;;6.15;5.80;;;;;;;25.63;52.13;100474.09;4364952;32;20192;-73
2021/07/04 09:39:30;;;;;;;5.95;5.62;;;;;;;25.88;52.53;100517.69;4339901;32;20066;-73
2021/07/04 09:42:10;;;;;;;6.22;5.93;;;;;;;25.05;52.96;100519.41;4364369;32;20193;-73
2021/07/04 09:44:37;;;;;;;5.60;5.30;;;;;;;25.11;53.20;100500.91;4351233;32;20070;-73
2021/07/04 09:47:13;;;;;;;6.00;5.70;;;;;;;25.19;53.34;100506.22;4344593;32;20069;-72
2021/07/04 09:49:39;;;;;;;6.25;5.95;;;;;;;25.48;53.65;100506.34;4363159;32;20544;-73
2021/07/04 09:52:18;;;;;;;6.10;5.80;;;;;;;25.53;52.17;100460.09;4349926;32;20085;-72
2021/07/04 09:55:00;;;;;;;6.32;6.03;;;;;;;25.49;51.26;100501.78;4356735;32;20620;-72
2021/07/04 09:57:26;;;;;;;6.03;5.72;;;;;;;26.03;51.26;100487.31;4352198;32;20664;-72
2021/07/04 10:00:17;;;;;;;6.30;6.00;;;;;;;26.46;49.30;100484.72;4351307;32;20077;-72
2021/07/04 10:02:42;;;;;;;6.43;5.93;;;;;;;26.14;48.92;100469.84;4336320;32;20839;-71
2021/07/04 10:05:14;;;;;;;6.07;5.78;;;;;;;26.11;48.82;100489.88;4322073;32;20459;-71
2021/07/04 10:07:40;;;;;;;;;;;;;;;26.11;48.63;100484.50;4334532;32;20307;-72
2021/07/04 10:10:05;;;;;;;5.90;5.60;;;;;;;26.42;49.31;100483.44;4337451;32;20434;-72
2021/07/04 10:12:30;;;;;;;6.97;6.57;;;;;;;26.45;48.33;100464.22;4321780;32;20206;-72
2021/07/04 10:14:56;;;;;;;6.15;5.85;;;;;;;26.81;47.53;100474.16;4324587;32;20086;-72
2021/07/04 10:17:22;;;;;;;5.82;5.53;;;;;;;26.26;48.30;100350.81;4332998;32;20124;-72
2021/07/04 10:19:51;;;;;;;5.75;5.45;;;;;;;26.61;47.18;100350.13;4339769;32;20086;-73
2021/07/04 10:22:16;;;;;;;5.85;5.55;;;;;;;26.98;46.38;100413.63;4348146;32;20181;-72
2021/07/04 10:24:41;;;;;;;5.80;5.50;;;;;;;27.13;47.22;100448.56;4352230;32;20105;-72
2021/07/04 10:27:07;;;;;;;6.07;5.78;;;;;;;26.87;46.51;100444.59;4352897;32;20605;-73
2021/07/04 10:29:32;;;;;;;6.25;5.85;;;;;;;27.05;49.54;100462.16;4348527;32;20066;-72
2021/07/04 10:32:05;;;;;;;5.62;5.32;;;;;;;26.64;48.34;100412.50;4344202;32;20079;-73
2021/07/04 10:34:31;;;;;;;6.00;5.70;;;;;;;27.09;50.06;100459.91;4324664;32;20062;-73
2021/07/04 10:36:58;;;;;;;6.57;6.18;;;;;;;27.17;51.00;100462.47;4347231;32;20074;-73
2021/07/04 10:39:27;;;;;;;5.95;5.55;;;;;;;26.74;49.27;100457.94;4353763;32;20632;-74
2021/07/04 10:42:22;;;;;;;6.00;5.70;;;;;;;26.18;51.37;100437.03;4356152;32;20168;-73
2021/07/04 10:44:51;;;;;;;5.47;5.28;;;;;;;26.57;50.47;100441.16;4383069;32;20568;-75
2021/07/04 10:47:24;;;;;;;6.22;5.82;;;;;;;26.50;50.32;100424.13;4330663;32;20546;-73
2021/07/04 10:50:06;;;;;;;5.93;5.62;;;;;;;25.77;50.02;100305.78;4340689;32;20443;-74
2021/07/04 10:52:35;;;;;;;;;;;;;;;26.58;50.47;100445.56;4343115;32;20707;-73
2021/07/04 10:55:01;;;;;;;5.70;5.40;;;;;;;26.74;51.35;100432.88;4367751;32;19973;-74
2021/07/04 10:57:32;;;;;;;6.18;5.87;;;;;;;26.57;51.58;100426.87;4328758;32;20272;-73
2021/07/04 11:00:00;;;;;;;6.25;5.85;;;;;;;26.90;48.05;100435.28;4339899;32;20133;-73
2021/07/04 11:02:46;;;;;;;6.05;5.75;;;;;;;26.64;49.41;100392.81;4353316;32;20084;-73
2021/07/04 11:05:12;;;;;;;6.20;5.70;;;;;;;26.65;49.84;100432.16;4338757;32;20341;-73
2021/07/04 11:07:52;;;;;;;6.65;6.20;;;;;;;26.74;49.36;100420.25;4341640;32;20278;-73
2021/07/04 11:10:20;;;;;;;5.80;5.50;;;;;;;27.11;48.56;100404.00;4352347;32;20089;-73
2021/07/04 11:12:45;;;;;;;6.10;5.70;;;;;;;26.83;47.92;100412.88;4326472;33;20141;-72
2021/07/04 11:15:10;;;;;;;6.05;5.75;;;;;;;26.99;49.07;100409.91;4325004;32;20070;-73
2021/07/04 11:17:58;;;;;;;5.90;5.60;;;;;;;27.34;47.82;100406.44;4352096;32;20105;-73
2021/07/04 11:20:31;;;;;;;6.03;5.72;;;;;;;27.18;46.95;100362.59;4348473;32;20084;-72
2021/07/04 11:22:57;;;;;;;6.20;5.80;;;;;;;27.05;48.21;100378.66;4359541;32;20250;-73